Flight EZE33X

  • Submitted By: Dave Hardy
  • Departure Airport: Leeds Bradford (EGNM)
  • Arrival Airport: Bristol / Lulsgate (EGGD)
  • Aircraft: SB20 (G-CDEA)
  • Flight Time: 0.50
  • Date Submitted: 05/17/2009
  • Status: Accepted
Flight Details
Gross Revenue:
(38 load / £ 0.00 per unit
£ 0.00
Fuel Cost:
(2151 fuel used @ 0 / unit)
£ 0.00

Flight Details

  • VATAWARE Link: -

Additional Log Information:

View Log

[2009/05/17 13:16:00]
Flight IATA:EZE33X
Pilot Number:EZE0001
Company ICAO:EZE
Aircraft Type:SB20
PAX:38
Aircraft Registration:SB20
Departing Airport: EGNM
Destination Airport: EGGD
Online: VATSIM
Route:POL.Y98.NOKIN.N862.DOBEM
Flight Level:1800
13:16 Zero fuel Weight: 39784 Lbs, Fuel Weight: 8289 Lbs
13:16 VATSIM:EGNM 171350Z 12012KT 7000 -SHRA FEW007 BKN010 09/08 Q1002
13:16 VATSIM:EGGD 171350Z 20019KT 9999 3000NE SHRA FEW004 SCT008 BKN013 10/10 Q1001
13:22 Parking Brakes off
13:22 Com1 Freq=122.80
13:25 VR= 189 Knots
13:25 V2= 191 Knots
13:25 Take-off
13:25 Take off Weight: 47943 Lbs
13:25 Wind: 116 @ 012 Knots Heading: 136
13:25 POS N53 51 48 W001 39 21
13:25 N11 143 N12 143
13:25 Gear Up: 194 Knots
13:25 Flaps: at 194 Knots
13:25 TOC
13:25 Fuel Weight: 8143 Lb
13:32 Flaps:Up at 221 Knots
13:40 Wind:159@031 Knots Heading: 183 Ground Speed: 341 Knots Altitude 17969 ft
13:55 Wind:203@022 Knots Heading: 159 Ground Speed: 262 Knots Altitude 9583 ft
13:58 Flaps: at 258 Knots
13:59 Gear Down: 173 Knots
14:00 Gear Up: 149 Knots
14:04 Flaps: at 178 Knots
14:05 Gear Down: 155 Knots
14:05 Flaps: at 155 Knots
14:07 Flaps: at 162 Knots
14:07 TOD
14:07 Fuel Weight: 6281 Lb
14:08 TouchDown:Rate -312 ft/min Speed: 139 Knots
14:08 VATSIM:EGGD 171450Z 21015G27KT 8000 SHRA SCT012 BKN020 10/09 Q1002
14:08 Land
14:08 Wind:205@018 Knots
14:08 Heading: 268
14:08 Flight Duration: 00:43
14:08 Landing Weight: 46023 Lbs
14:08 POS N51 22 56 W002 43 25
14:12 Slew ON
14:12 Slew OFF
14:12 Parking brakes on
14:12 Block to Block Duration: 00:50
14:12 Final Fuel: 6137 Lbls
14:12 Spent Fuel: 2151 Lbls
14:12 Flight Length: 194 NM
14:12 TOD Land Length: 02 NM

Route Map